Time;durP1;ratioP1;P1;durP2;ratioP2;P2;SDS_P1;SDS_P2;PMS_P1;PMS_P2;Temp;Humidity;BMP_temperature;BMP_pressure;BME280_temperature;BME280_humidity;BME280_pressure;Samples;Min_cycle;Max_cycle;Signal;HPM_P1;HPM_P2
2021/10/25 00:01:38;;;;;;;4.80;1.40;;;;;14.20;100871.00;;;;5119165;27;20042;-72
2021/10/25 00:04:09;;;;;;;10.57;2.03;;;;;14.30;100874.00;;;;5117507;27;20134;-72
2021/10/25 00:06:38;;;;;;;3.22;1.40;;;;;14.30;100866.00;;;;5119517;27;20050;-72
2021/10/25 00:09:08;;;;;;;5.20;1.25;;;;;14.20;100885.00;;;;5121358;27;20042;-71
2021/10/25 00:11:37;;;;;;;8.13;1.67;;;;;14.20;100878.00;;;;5119118;27;20543;-72
2021/10/25 00:14:07;;;;;;;6.07;1.55;;;;;14.20;100875.00;;;;5119135;27;20043;-72
2021/10/25 00:16:41;;;;;;;5.45;1.30;;;;;14.10;100872.00;;;;5115324;27;20502;-72
2021/10/25 00:19:12;;;;;;;13.18;1.77;;;;;14.10;100879.00;;;;5118268;27;20120;-72
2021/10/25 00:21:42;;;;;;;11.88;1.75;;;;;14.00;100867.00;;;;5115372;27;20059;-72
2021/10/25 00:24:11;;;;;;;3.85;1.10;;;;;14.00;100880.00;;;;5118349;27;20043;-73
2021/10/25 00:26:40;;;;;;;4.28;1.10;;;;;13.90;100885.00;;;;5119178;27;20054;-72
2021/10/25 00:29:10;;;;;;;5.32;1.30;;;;;13.80;100879.00;;;;5117680;27;20044;-72
2021/10/25 00:31:39;;;;;;;5.75;1.40;;;;;13.80;100891.00;;;;5119152;27;20046;-72
2021/10/25 00:34:09;;;;;;;5.65;1.23;;;;;13.80;100896.00;;;;5119942;27;20035;-72
2021/10/25 00:36:38;;;;;;;10.18;1.27;;;;;13.70;100878.00;;;;5118600;27;20761;-71
2021/10/25 00:39:09;;;;;;;12.60;1.70;;;;;13.70;100901.00;;;;5116703;27;20444;-72
2021/10/25 00:41:38;;;;;;;6.00;1.30;;;;;13.60;100894.00;;;;5119317;27;20122;-72
2021/10/25 00:44:08;;;;;;;4.65;1.13;;;;;13.60;100892.00;;;;5119840;27;20039;-71
2021/10/25 00:46:38;;;;;;;7.68;1.35;;;;;13.60;100906.00;;;;5113820;27;20046;-72
2021/10/25 00:49:08;;;;;;;6.10;1.35;;;;;13.60;100900.00;;;;5119982;27;20047;-72
2021/10/25 00:51:38;;;;;;;7.82;1.52;;;;;13.60;100910.00;;;;5118101;27;20046;-71
2021/10/25 00:54:07;;;;;;;6.07;1.50;;;;;13.60;100912.00;;;;5116905;27;20544;-72
2021/10/25 00:56:43;;;;;;;4.07;1.15;;;;;13.50;100923.00;;;;5112393;27;20050;-71
2021/10/25 01:02:15;;;;;;;6.07;1.20;;;;;13.50;100924.00;;;;4935422;23;20062;-74
2021/10/25 01:04:46;;;;;;;8.07;1.13;;;;;13.40;100904.00;;;;4909681;29;20092;-72
2021/10/25 01:07:15;;;;;;;2.95;1.17;;;;;13.40;100916.00;;;;4910991;29;20066;-72
2021/10/25 01:09:46;;;;;;;1.55;0.82;;;;;13.30;100912.00;;;;4912372;29;20048;-73
2021/10/25 01:12:16;;;;;;;6.35;1.10;;;;;13.20;100892.00;;;;4909480;29;20048;-72
2021/10/25 01:14:45;;;;;;;7.00;1.15;;;;;13.20;100909.00;;;;4912209;29;20055;-72
2021/10/25 01:17:15;;;;;;;4.95;1.05;;;;;13.20;100889.00;;;;4910549;29;20062;-72
2021/10/25 01:19:52;;;;;;;2.80;1.00;;;;;13.30;100916.00;;;;4910195;29;20059;-72
2021/10/25 01:22:23;;;;;;;3.92;0.88;;;;;13.20;100889.00;;;;4912647;29;20538;-74
2021/10/25 01:24:54;;;;;;;4.57;0.90;;;;;13.20;100899.00;;;;4911227;29;20581;-72
2021/10/25 01:27:24;;;;;;;8.30;1.13;;;;;13.20;100891.00;;;;4910753;29;20572;-72
2021/10/25 01:29:57;;;;;;;24.10;1.40;;;;;13.20;100912.00;;;;4910854;29;20682;-72
2021/10/25 01:32:27;;;;;;;8.40;1.10;;;;;13.20;100883.00;;;;4911115;29;20104;-71
2021/10/25 01:34:57;;;;;;;6.22;1.30;;;;;13.10;100911.00;;;;4911516;29;20060;-72
2021/10/25 01:37:27;;;;;;;6.35;1.30;;;;;13.10;100913.00;;;;4910752;29;20431;-74
2021/10/25 01:39:56;;;;;;;3.47;1.05;;;;;13.10;100916.00;;;;4910246;29;20060;-72
2021/10/25 01:42:26;;;;;;;5.47;1.13;;;;;13.00;100924.00;;;;4910383;29;20052;-72
2021/10/25 01:44:56;;;;;;;5.95;1.23;;;;;13.10;100910.00;;;;4911166;29;20131;-75
2021/10/25 01:47:25;;;;;;;4.75;1.13;;;;;13.00;100895.00;;;;4910012;29;20056;-73
2021/10/25 01:49:55;;;;;;;7.88;1.52;;;;;13.00;100903.00;;;;4912244;29;20048;-73
2021/10/25 01:52:25;;;;;;;7.93;1.20;;;;;13.10;100906.00;;;;4910558;29;20060;-73
2021/10/25 01:54:57;;;;;;;9.43;1.20;;;;;13.10;100888.00;;;;4910149;29;20051;-73
2021/10/25 01:57:27;;;;;;;4.25;1.10;;;;;13.00;100900.00;;;;4910057;29;20090;-73
2021/10/25 01:59:58;;;;;;;5.78;1.10;;;;;13.00;100894.00;;;;4910036;29;20087;-74
2021/10/25 02:02:46;;;;;;;3.90;1.10;;;;;13.00;100899.00;;;;4911398;29;20149;-73
2021/10/25 02:05:41;;;;;;;12.82;1.65;;;;;12.80;100880.00;;;;4908762;29;20063;-73
2021/10/25 02:08:13;;;;;;;5.53;1.30;;;;;12.80;100903.00;;;;4910111;29;20052;-73
2021/10/25 02:10:56;;;;;;;2.92;1.17;;;;;12.90;100882.00;;;;4909790;29;20431;-72
2021/10/25 02:13:28;;;;;;;9.07;1.50;;;;;12.90;100885.00;;;;4909886;29;20048;-72
2021/10/25 02:16:02;;;;;;;6.35;1.10;;;;;12.80;100894.00;;;;4909859;29;20052;-72
2021/10/25 02:18:32;;;;;;;5.47;1.17;;;;;12.70;100908.00;;;;4910022;29;20715;-72
2021/10/25 02:21:10;;;;;;;8.75;1.58;;;;;12.70;100899.00;;;;4910019;29;20076;-72
2021/10/25 02:23:41;;;;;;;3.65;1.45;;;;;12.60;100912.00;;;;4909792;29;20083;-72
2021/10/25 02:26:11;;;;;;;7.83;1.40;;;;;12.70;100882.00;;;;4909774;29;20067;-72
2021/10/25 02:28:40;;;;;;;2.45;1.10;;;;;12.60;100882.00;;;;4909358;29;20059;-72
2021/10/25 02:31:11;;;;;;;5.50;1.65;;;;;12.60;100895.00;;;;4909763;29;20107;-72
2021/10/25 02:33:42;;;;;;;4.68;1.63;;;;;12.80;100902.00;;;;4910143;29;20052;-72
2021/10/25 02:36:12;;;;;;;;;;;;;12.70;100906.00;;;;4910324;29;20052;-72
2021/10/25 02:38:42;;;;;;;5.18;1.58;;;;;12.60;100884.00;;;;4909962;29;19949;-72
2021/10/25 02:41:12;;;;;;;3.83;1.70;;;;;12.50;100883.00;;;;4910830;29;20084;-72
2021/10/25 02:43:43;;;;;;;6.32;1.73;;;;;12.40;100889.00;;;;4909770;29;20123;-72
2021/10/25 02:46:13;;;;;;;11.30;1.42;;;;;12.30;100888.00;;;;4909030;29;20139;-72
2021/10/25 02:48:45;;;;;;;;;;;;;12.30;100888.00;;;;4910002;29;20081;-72
2021/10/25 02:51:16;;;;;;;18.60;11.15;;;;;12.40;100881.00;;;;4909344;29;19998;-72
2021/10/25 02:53:50;;;;;;;12.35;6.13;;;;;12.30;100886.00;;;;4909056;29;20056;-72
2021/10/25 02:56:21;;;;;;;6.53;3.20;;;;;12.20;100870.00;;;;4909526;29;20056;-72
2021/10/25 02:58:52;;;;;;;9.75;2.17;;;;;12.20;100867.00;;;;4909302;29;20072;-73
2021/10/25 03:01:22;;;;;;;6.50;1.60;;;;;12.20;100872.00;;;;4909318;29;20067;-72
2021/10/25 03:03:52;;;;;;;4.07;1.50;;;;;12.20;100878.00;;;;4909359;29;20426;-73
2021/10/25 03:06:27;;;;;;;7.80;2.10;;;;;12.10;100889.00;;;;4909471;29;20118;-73
2021/10/25 03:08:58;;;;;;;8.40;1.77;;;;;12.10;100874.00;;;;4909179;29;20048;-72
2021/10/25 03:11:28;;;;;;;4.93;1.80;;;;;12.00;100871.00;;;;4909410;29;20241;-72
2021/10/25 03:13:58;;;;;;;4.88;1.77;;;;;12.00;100876.00;;;;4910335;29;20792;-72
2021/10/25 03:16:32;;;;;;;5.82;2.00;;;;;12.00;100900.00;;;;4908861;29;20542;-72
2021/10/25 03:19:02;;;;;;;3.83;1.80;;;;;12.00;100870.00;;;;4908966;29;20055;-72
2021/10/25 03:21:34;;;;;;;6.07;1.65;;;;;12.00;100873.00;;;;4909518;29;20166;-72
2021/10/25 03:24:05;;;;;;;9.48;2.15;;;;;12.00;100880.00;;;;4910854;29;20055;-73
2021/10/25 03:26:36;;;;;;;7.20;2.05;;;;;11.90;100883.00;;;;4909285;29;20926;-73
2021/10/25 03:29:07;;;;;;;4.63;1.87;;;;;11.90;100880.00;;;;4908960;29;20113;-72
2021/10/25 03:31:38;;;;;;;9.13;2.40;;;;;11.90;100870.00;;;;4909314;29;20056;-72
2021/10/25 03:34:07;;;;;;;8.25;2.30;;;;;11.80;100896.00;;;;4908852;29;20991;-73
2021/10/25 03:36:38;;;;;;;8.75;2.38;;;;;11.80;100875.00;;;;4908966;29;20059;-73
2021/10/25 03:39:08;;;;;;;14.15;2.80;;;;;11.80;100880.00;;;;4909056;29;20055;-73
2021/10/25 03:41:46;;;;;;;4.82;2.13;;;;;11.90;100883.00;;;;4908515;29;20052;-73
2021/10/25 03:44:30;;;;;;;5.95;2.00;;;;;11.80;100861.00;;;;4909141;29;20091;-73
2021/10/25 03:47:05;;;;;;;7.20;2.50;;;;;11.70;100859.00;;;;4910689;29;20044;-73
2021/10/25 03:49:46;;;;;;;6.53;2.63;;;;;11.70;100863.00;;;;4908412;29;20500;-73
2021/10/25 03:52:42;;;;;;;4.25;2.50;;;;;11.80;100839.00;;;;4910349;29;20100;-73
2021/10/25 04:26:12;;;;;;;5.80;3.60;;;;;11.40;100830.00;;;;4912163;29;20052;-73
2021/10/25 04:28:43;;;;;;;6.43;3.63;;;;;11.50;100835.00;;;;4912866;29;20067;-73
2021/10/25 04:31:13;;;;;;;20.70;3.90;;;;;11.40;100843.00;;;;4911574;29;20052;-73
2021/10/25 04:33:53;;;;;;;8.48;3.22;;;;;11.40;100847.00;;;;4911493;29;20092;-73
2021/10/25 04:36:42;;;;;;;4.93;3.60;;;;;11.30;100852.00;;;;4913273;29;20184;-73
2021/10/25 04:39:20;;;;;;;6.68;3.40;;;;;11.30;100831.00;;;;4911447;29;20056;-73
2021/10/25 04:41:50;;;;;;;11.43;3.38;;;;;11.20;100825.00;;;;4910868;29;20048;-73
2021/10/25 04:44:20;;;;;;;7.03;3.30;;;;;11.20;100810.00;;;;4912523;29;20056;-73
2021/10/25 04:46:49;;;;;;;8.27;4.05;;;;;11.20;100813.00;;;;4911614;29;20087;-73
2021/10/25 04:49:19;;;;;;;6.95;3.88;;;;;11.10;100828.00;;;;4911905;29;20048;-73
2021/10/25 04:52:07;;;;;;;9.30;3.78;;;;;11.10;100828.00;;;;4912606;29;20071;-73
2021/10/25 04:54:38;;;;;;;6.93;3.60;;;;;11.10;100816.00;;;;4911040;29;20491;-74
2021/10/25 04:57:08;;;;;;;7.22;3.83;;;;;11.10;100807.00;;;;4911451;29;20360;-73
2021/10/25 04:59:39;;;;;;;10.45;3.83;;;;;11.00;100818.00;;;;4911383;29;20435;-73
2021/10/25 05:02:08;;;;;;;5.13;3.78;;;;;11.00;100809.00;;;;4912582;29;20052;-73
2021/10/25 05:04:40;;;;;;;8.95;3.50;;;;;11.00;100832.00;;;;4911018;29;20523;-74
2021/10/25 05:07:10;;;;;;;9.02;3.75;;;;;11.00;100822.00;;;;4913127;29;20058;-74
2021/10/25 05:09:40;;;;;;;6.13;3.47;;;;;11.00;100816.00;;;;4911266;29;20067;-73
2021/10/25 05:12:13;;;;;;;9.73;3.95;;;;;10.90;100808.00;;;;4910936;29;20056;-73
2021/10/25 05:14:43;;;;;;;9.75;3.88;;;;;10.90;100795.00;;;;4910597;29;20168;-73
2021/10/25 05:17:13;;;;;;;10.35;3.92;;;;;10.90;100816.00;;;;4910914;29;20591;-73
2021/10/25 05:19:45;;;;;;;5.05;3.67;;;;;10.90;100811.00;;;;4910759;29;20143;-73
2021/10/25 05:22:23;;;;;;;13.48;3.47;;;;;10.90;100807.00;;;;4910864;29;20139;-73
2021/10/25 05:24:53;;;;;;;5.82;3.42;;;;;10.80;100813.00;;;;4910840;29;20052;-73
2021/10/25 05:27:22;;;;;;;5.07;3.17;;;;;10.80;100812.00;;;;4910654;29;20063;-73
2021/10/25 05:29:51;;;;;;;5.70;3.67;;;;;10.70;100806.00;;;;4910296;29;20053;-73
2021/10/25 05:32:21;;;;;;;5.53;3.17;;;;;10.70;100815.00;;;;4912629;29;20044;-73
2021/10/25 05:34:52;;;;;;;9.15;3.78;;;;;10.70;100791.00;;;;4912308;29;20131;-73
2021/10/25 05:37:22;;;;;;;9.30;3.17;;;;;10.70;100778.00;;;;4910671;29;20579;-73
2021/10/25 05:39:53;;;;;;;5.63;3.45;;;;;10.60;100800.00;;;;4910362;29;20063;-74
2021/10/25 05:42:26;;;;;;;7.53;3.55;;;;;10.60;100809.00;;;;4910635;29;20051;-73
2021/10/25 05:44:56;;;;;;;7.55;3.75;;;;;10.70;100800.00;;;;4910653;29;20628;-73
2021/10/25 05:47:25;;;;;;;7.88;3.60;;;;;10.70;100790.00;;;;4910396;29;20554;-73
2021/10/25 05:49:55;;;;;;;6.05;3.33;;;;;10.70;100808.00;;;;4910928;29;20048;-73
2021/10/25 05:52:24;;;;;;;11.85;4.07;;;;;10.60;100781.00;;;;4910060;29;20160;-73
2021/10/25 05:54:54;;;;;;;9.05;3.53;;;;;10.60;100808.00;;;;4909974;29;20075;-73
2021/10/25 05:57:24;;;;;;;8.65;3.58;;;;;10.60;100777.00;;;;4911999;29;20044;-73
2021/10/25 05:59:54;;;;;;;8.80;3.63;;;;;10.50;100785.00;;;;4911536;29;20058;-72
2021/10/25 06:02:27;;;;;;;5.13;3.10;;;;;10.50;100771.00;;;;4909722;29;20066;-73
2021/10/25 06:05:08;;;;;;;10.85;3.58;;;;;10.40;100785.00;;;;4909908;29;20060;-73
2021/10/25 06:07:45;;;;;;;5.22;3.30;;;;;10.40;100781.00;;;;4910541;29;20470;-73
2021/10/25 06:10:18;;;;;;;6.18;3.70;;;;;10.30;100794.00;;;;4910294;29;20060;-74
2021/10/25 06:12:51;;;;;;;6.63;3.20;;;;;10.30;100771.00;;;;4910001;29;20055;-73
2021/10/25 06:15:38;;;;;;;4.80;3.00;;;;;10.30;100782.00;;;;4909947;29;20062;-73
2021/10/25 06:18:10;;;;;;;9.02;3.30;;;;;10.30;100757.00;;;;4909770;29;20056;-73
2021/10/25 06:20:40;;;;;;;7.85;3.85;;;;;10.30;100762.00;;;;4909503;29;20060;-73
2021/10/25 06:23:18;;;;;;;8.88;3.58;;;;;10.30;100773.00;;;;4909748;29;20052;-73
2021/10/25 06:25:51;;;;;;;6.10;3.42;;;;;10.30;100762.00;;;;4909778;29;20051;-73
2021/10/25 06:28:27;;;;;;;6.03;3.25;;;;;10.30;100796.00;;;;4909533;29;20048;-74
2021/10/25 06:31:07;;;;;;;8.02;3.33;;;;;10.20;100761.00;;;;4909734;29;20059;-73
2021/10/25 06:33:58;;;;;;;7.88;3.30;;;;;10.10;100756.00;;;;4910838;29;20055;-73
2021/10/25 06:36:34;;;;;;;6.90;3.30;;;;;10.20;100778.00;;;;4910194;29;20056;-73
2021/10/25 06:39:20;;;;;;;5.20;3.38;;;;;10.20;100761.00;;;;4909144;29;20550;-73
2021/10/25 06:41:57;;;;;;;7.07;3.63;;;;;10.20;100786.00;;;;4910054;29;20080;-73
2021/10/25 06:44:52;;;;;;;7.22;3.33;;;;;10.10;100786.00;;;;4909542;29;20058;-73
2021/10/25 06:47:26;;;;;;;5.93;3.08;;;;;10.10;100773.00;;;;4909966;29;20052;-74
2021/10/25 06:50:02;;;;;;;8.23;3.53;;;;;10.10;100783.00;;;;4909323;29;20191;-73
2021/10/25 06:52:36;;;;;;;9.00;3.20;;;;;10.10;100792.00;;;;4909298;29;20059;-73
2021/10/25 06:55:07;;;;;;;6.25;2.90;;;;;10.10;100781.00;;;;4908922;29;20055;-73
2021/10/25 06:57:39;;;;;;;7.20;3.55;;;;;10.00;100775.00;;;;4908903;29;20415;-73
2021/10/25 07:00:13;;;;;;;19.35;3.55;;;;;10.10;100768.00;;;;4908746;29;20048;-74
2021/10/25 07:02:43;;;;;;;7.38;3.00;;;;;10.10;100772.00;;;;4909515;29;20055;-73
2021/10/25 07:05:18;;;;;;;7.95;3.53;;;;;10.00;100787.00;;;;4909323;29;20063;-74
2021/10/25 07:07:48;;;;;;;4.55;3.20;;;;;9.90;100787.00;;;;4909863;29;20058;-73
2021/10/25 07:10:18;;;;;;;7.10;2.90;;;;;9.90;100789.00;;;;4909696;29;20064;-73
2021/10/25 07:12:48;;;;;;;7.40;3.58;;;;;9.90;100797.00;;;;4909438;29;20520;-73
2021/10/25 07:15:19;;;;;;;;;;;;;9.80;100796.00;;;;4909800;29;20052;-73
2021/10/25 07:20:48;;;;;;;7.43;3.20;;;;;9.80;100782.00;;;;4908812;29;20060;-74
2021/10/25 08:11:05;;;;;;;4.30;2.40;;;;;9.50;100803.00;;;;4912495;29;20048;-73
2021/10/25 08:13:44;;;;;;;8.98;2.42;;;;;9.50;100814.00;;;;4912076;29;20536;-74
2021/10/25 08:21:21;;;;;;;8.30;2.88;;;;;9.40;100818.00;;;;4911309;29;20552;-73
2021/10/25 08:23:53;;;;;;;5.00;2.30;;;;;9.30;100812.00;;;;4910130;29;20052;-73
2021/10/25 08:26:42;;;;;;;4.25;2.30;;;;;9.30;100820.00;;;;4912575;29;20066;-73
2021/10/25 08:29:16;;;;;;;7.38;2.65;;;;;9.30;100829.00;;;;4912005;29;20059;-73
2021/10/25 08:31:55;;;;;;;3.80;2.50;;;;;9.30;100805.00;;;;4911422;29;20056;-73
2021/10/25 08:34:43;;;;;;;10.48;3.10;;;;;9.30;100808.00;;;;4911787;29;20052;-73
2021/10/25 08:40:20;;;;;;;3.80;2.90;;;;;9.50;100809.00;;;;4911536;29;20052;-73
2021/10/25 08:42:49;;;;;;;6.55;3.25;;;;;9.50;100818.00;;;;4911461;29;20051;-73
2021/10/25 08:45:28;;;;;;;7.55;2.92;;;;;9.50;100828.00;;;;4911974;29;20103;-73
2021/10/25 08:48:02;;;;;;;5.40;2.97;;;;;9.50;100811.00;;;;4911098;29;20130;-74
2021/10/25 08:50:36;;;;;;;6.18;3.30;;;;;9.50;100827.00;;;;4911715;29;20055;-73
2021/10/25 08:53:11;;;;;;;4.30;2.88;;;;;9.50;100844.00;;;;4911260;29;20143;-73
2021/10/25 08:55:52;;;;;;;20.05;6.80;;;;;9.50;100837.00;;;;4911081;29;20551;-74
2021/10/25 08:58:35;;;;;;;10.10;3.28;;;;;9.50;100830.00;;;;4911313;29;20119;-74
2021/10/25 09:01:05;;;;;;;4.03;2.60;;;;;9.50;100857.00;;;;4910771;29;20603;-74
2021/10/25 09:04:05;;;;;;;5.57;2.78;;;;;9.50;100875.00;;;;4910590;29;20056;-73
2021/10/25 09:06:58;;;;;;;6.32;2.70;;;;;9.50;100869.00;;;;4910769;29;20157;-73
2021/10/25 09:09:31;;;;;;;4.97;2.70;;;;;9.50;100859.00;;;;4911223;29;20100;-73
2021/10/25 09:12:08;;;;;;;3.58;2.60;;;;;9.60;100856.00;;;;4911593;29;20074;-72
2021/10/25 09:15:05;;;;;;;3.88;2.58;;;;;9.60;100875.00;;;;4911134;29;20062;-73
2021/10/25 09:17:43;;;;;;;4.60;2.50;;;;;9.70;100856.00;;;;4911376;29;20526;-73
2021/10/25 09:20:24;;;;;;;3.90;2.37;;;;;9.80;100861.00;;;;4910861;29;20100;-74
2021/10/25 09:23:07;;;;;;;5.75;2.70;;;;;9.90;100867.00;;;;4911859;29;20036;-73
2021/10/25 09:25:42;;;;;;;11.98;2.85;;;;;10.00;100888.00;;;;4910433;29;20155;-73
2021/10/25 09:28:27;;;;;;;5.80;2.63;;;;;10.20;100892.00;;;;4909447;29;20409;-73
2021/10/25 09:31:00;;;;;;;4.97;2.60;;;;;10.30;100902.00;;;;4910857;29;20040;-74
2021/10/25 09:33:38;;;;;;;5.53;2.78;;;;;10.40;100888.00;;;;4910221;29;20056;-74
2021/10/25 09:36:18;;;;;;;5.70;2.55;;;;;10.60;100908.00;;;;4910261;29;20052;-73
2021/10/25 09:39:00;;;;;;;5.78;2.42;;;;;10.70;100922.00;;;;4911721;29;20060;-74
2021/10/25 09:41:48;;;;;;;8.30;2.80;;;;;11.00;100903.00;;;;4908860;29;20144;-74
2021/10/25 09:50:51;;;;;;;22.23;4.85;;;;;12.00;100899.00;;;;4910537;29;20190;-75
2021/10/25 09:53:37;;;;;;;15.35;4.47;;;;;13.80;100787.00;;;;4909581;29;20104;-74
2021/10/25 09:56:11;;;;;;;9.15;3.58;;;;;14.10;100830.00;;;;4911243;29;20040;-74
2021/10/25 10:01:40;;;;;;;7.57;2.65;;;;;14.30;100849.00;;;;4910018;29;20448;-72
2021/10/25 10:04:11;;;;;;;8.45;2.58;;;;;15.70;100779.00;;;;4910254;29;20052;-73
2021/10/25 10:07:18;;;;;;;7.85;2.60;;;;;15.50;100817.00;;;;4902730;29;20054;-73
2021/10/25 10:09:58;;;;;;;25.05;3.53;;;;;15.40;100835.00;;;;4909677;29;20052;-72
2021/10/25 10:12:29;;;;;;;30.77;3.85;;;;;16.10;100829.00;;;;4909573;29;20524;-73
2021/10/25 10:15:00;;;;;;;8.50;2.50;;;;;17.00;100781.00;;;;4909733;29;20143;-72
2021/10/25 10:18:00;;;;;;;15.82;6.32;;;;;21.30;100688.00;;;;4909577;29;20048;-72
2021/10/25 10:20:57;;;;;;;10.97;2.43;;;;;23.70;100648.00;;;;4910638;29;20059;-73
2021/10/25 10:23:28;;;;;;;15.15;2.80;;;;;24.00;100645.00;;;;4909772;29;20048;-73
2021/10/25 10:26:00;;;;;;;8.40;2.10;;;;;24.30;100637.00;;;;4908954;29;20119;-73
2021/10/25 10:28:38;;;;;;;13.85;2.22;;;;;24.30;100642.00;;;;4909572;29;20072;-73
2021/10/25 10:31:14;;;;;;;6.10;1.70;;;;;24.70;100624.00;;;;4910401;29;20064;-73
2021/10/25 10:34:11;;;;;;;14.85;3.58;;;;;25.50;100596.00;;;;4909147;29;20135;-73
2021/10/25 10:36:55;;;;;;;11.25;1.92;;;;;25.40;100602.00;;;;4908824;29;20139;-73
2021/10/25 10:39:40;;;;;;;4.15;1.30;;;;;24.50;100595.00;;;;4909013;29;20043;-73
2021/10/25 10:42:29;;;;;;;4.38;2.40;;;;;25.00;100562.00;;;;4910706;29;20192;-74
2021/10/25 10:45:08;;;;;;;6.70;1.60;;;;;25.60;100566.00;;;;4909131;29;20054;-73
2021/10/25 10:47:59;;;;;;;14.23;2.53;;;;;25.40;100535.00;;;;4909139;29;20444;-73
2021/10/25 10:50:55;;;;;;;7.00;2.10;;;;;26.20;100512.00;;;;4908948;29;20539;-73
2021/10/25 10:53:29;;;;;;;20.98;2.63;;;;;26.00;100546.00;;;;4910894;29;20445;-73
2021/10/25 10:56:05;;;;;;;8.40;2.20;;;;;25.70;100551.00;;;;4909228;29;20064;-73
2021/10/25 10:59:06;;;;;;;8.88;1.60;;;;;26.30;100557.00;;;;4910319;29;20047;-73
2021/10/25 11:01:37;;;;;;;7.10;1.58;;;;;26.20;100557.00;;;;4910579;29;20057;-73
2021/10/25 11:04:08;;;;;;;10.43;1.95;;;;;26.00;100583.00;;;;4910452;29;20444;-72
2021/10/25 11:06:38;;;;;;;9.25;2.78;;;;;26.00;100588.00;;;;4909547;29;20059;-73
2021/10/25 11:09:11;;;;;;;5.25;1.48;;;;;26.20;100587.00;;;;4910206;29;20055;-72
2021/10/25 11:11:43;;;;;;;12.68;1.73;;;;;26.10;100592.00;;;;4909893;29;20080;-73
2021/10/25 11:14:17;;;;;;;3.35;1.33;;;;;27.20;100598.00;;;;4911028;29;20052;-72
2021/10/25 11:19:16;;;;;;;7.72;1.63;;;;;26.80;100615.00;;;;4910603;29;20136;-74
2021/10/25 11:21:52;;;;;;;2.28;1.20;;;;;26.90;100609.00;;;;4908368;29;20079;-73
2021/10/25 11:24:23;;;;;;;24.00;3.33;;;;;26.40;100616.00;;;;4909986;29;20044;-73
2021/10/25 11:26:56;;;;;;;4.65;1.70;;;;;26.30;100622.00;;;;4909289;29;20523;-73
2021/10/25 11:29:27;;;;;;;15.35;2.38;;;;;26.00;100639.00;;;;4910568;29;20064;-74
2021/10/25 11:32:03;;;;;;;3.40;1.20;;;;;26.00;100643.00;;;;4911016;29;20056;-74
2021/10/25 11:34:36;;;;;;;10.23;2.05;;;;;25.60;100664.00;;;;4909314;29;20052;-73
2021/10/25 11:37:10;;;;;;;6.00;1.90;;;;;25.00;100685.00;;;;4909831;29;20779;-73
2021/10/25 11:42:29;;;;;;;3.75;2.53;;;;;24.00;100783.00;;;;4910640;29;20080;-73
2021/10/25 11:45:05;;;;;;;5.38;1.27;;;;;24.50;100850.00;;;;4910344;29;20538;-73
2021/10/25 11:47:35;;;;;;;6.47;1.50;;;;;23.30;100855.00;;;;4910046;29;20052;-73
2021/10/25 11:50:27;;;;;;;1.15;0.98;;;;;22.90;100860.00;;;;4910262;29;20108;-74
2021/10/25 11:53:04;;;;;;;7.53;1.30;;;;;22.90;100861.00;;;;4909414;29;20044;-72
2021/10/25 11:55:36;;;;;;;3.05;1.20;;;;;23.30;100861.00;;;;4910424;29;20052;-73
2021/10/25 11:58:10;;;;;;;10.85;1.67;;;;;23.50;100862.00;;;;4909823;29;20111;-73
2021/10/25 12:00:47;;;;;;;7.55;2.30;;;;;23.70;100851.00;;;;4908859;29;20415;-73
2021/10/25 12:03:46;;;;;;;6.55;1.45;;;;;23.60;100855.00;;;;4900760;29;20067;-73
2021/10/25 12:06:21;;;;;;;2.92;1.10;;;;;23.50;100862.00;;;;4907990;29;20104;-73
2021/10/25 12:09:08;;;;;;;15.32;2.92;;;;;23.70;100873.00;;;;4910412;29;20610;-74
2021/10/25 12:11:57;;;;;;;6.72;1.70;;;;;23.90;100864.00;;;;4911124;29;20052;-73
2021/10/25 12:14:33;;;;;;;20.30;2.40;;;;;24.10;100857.00;;;;4909537;29;20047;-73
2021/10/25 12:17:03;;;;;;;3.75;1.27;;;;;23.80;100847.00;;;;4910687;29;20130;-73
2021/10/25 12:19:33;;;;;;;6.47;1.33;;;;;23.90;100836.00;;;;4913144;29;20092;-73
2021/10/25 12:22:14;;;;;;;4.95;1.83;;;;;24.40;100863.00;;;;4913617;29;20055;-73
2021/10/25 12:24:48;;;;;;;4.68;2.65;;;;;24.60;100851.00;;;;4913692;29;20483;-73
2021/10/25 12:27:25;;;;;;;2.90;1.40;;;;;24.70;100855.00;;;;4913559;29;20050;-74
2021/10/25 12:30:04;;;;;;;5.80;1.25;;;;;25.50;100853.00;;;;4913500;29;20043;-74
2021/10/25 12:32:50;;;;;;;3.45;1.60;;;;;25.60;100847.00;;;;4912734;29;20071;-73
2021/10/25 12:35:39;;;;;;;3.38;1.55;;;;;26.30;100855.00;;;;4913035;29;20056;-75
2021/10/25 12:38:12;;;;;;;7.30;2.13;;;;;26.20;100855.00;;;;4913563;29;20705;-73
2021/10/25 12:40:44;;;;;;;4.97;2.03;;;;;25.60;100827.00;;;;4912737;29;20087;-75
2021/10/25 12:43:16;;;;;;;10.35;3.17;;;;;26.00;100848.00;;;;4912461;29;20062;-74
2021/10/25 12:46:05;;;;;;;10.60;2.60;;;;;26.40;100845.00;;;;4913480;29;20078;-74
2021/10/25 12:48:50;;;;;;;4.57;2.03;;;;;27.00;100858.00;;;;4911642;29;20602;-74
2021/10/25 12:51:22;;;;;;;8.20;2.10;;;;;27.10;100862.00;;;;4913100;29;20066;-74
2021/10/25 12:53:52;;;;;;;9.25;2.30;;;;;26.50;100856.00;;;;4913118;29;20052;-73
2021/10/25 12:56:27;;;;;;;5.05;1.95;;;;;26.70;100854.00;;;;4912838;29;20127;-74
2021/10/25 12:59:08;;;;;;;4.45;1.58;;;;;27.20;100847.00;;;;4912590;29;20051;-73
2021/10/25 13:01:38;;;;;;;6.05;2.30;;;;;26.70;100850.00;;;;4912826;29;20052;-73
2021/10/25 13:04:08;;;;;;;4.40;1.52;;;;;26.60;100839.00;;;;4912257;29;20055;-73
2021/10/25 13:06:37;;;;;;;5.07;2.08;;;;;26.40;100844.00;;;;4912560;29;20048;-73
2021/10/25 13:09:10;;;;;;;8.00;2.00;;;;;27.00;100826.00;;;;4912457;29;20480;-74
2021/10/25 13:11:40;;;;;;;4.40;1.60;;;;;27.40;100824.00;;;;4912324;29;20048;-74
2021/10/25 13:14:10;;;;;;;7.45;1.90;;;;;26.30;100834.00;;;;4912915;29;20508;-73
2021/10/25 13:16:44;;;;;;;3.88;1.48;;;;;26.60;100821.00;;;;4912275;29;20528;-73
2021/10/25 13:19:17;;;;;;;3.55;1.20;;;;;26.90;100813.00;;;;4911956;29;20054;-74
2021/10/25 13:21:47;;;;;;;10.02;2.20;;;;;27.40;100848.00;;;;4912191;29;20044;-74
2021/10/25 13:24:17;;;;;;;;;;;;;28.20;100846.00;;;;4913093;29;20520;-73
2021/10/25 13:26:51;;;;;;;4.22;1.00;;;;;27.10;100828.00;;;;4912796;29;20386;-74
2021/10/25 13:29:21;;;;;;;2.42;0.90;;;;;26.90;100820.00;;;;4912168;29;20044;-73
2021/10/25 13:31:51;;;;;;;7.88;1.77;;;;;26.80;100829.00;;;;4912152;29;20512;-72
2021/10/25 13:34:21;;;;;;;2.17;0.80;;;;;26.70;100835.00;;;;4911090;29;20512;-73
2021/10/25 13:36:50;;;;;;;2.65;1.05;;;;;27.30;100833.00;;;;4912167;29;20064;-73
2021/10/25 13:39:21;;;;;;;4.25;1.00;;;;;27.40;100857.00;;;;4912071;29;20383;-72
2021/10/25 13:41:53;;;;;;;5.75;1.15;;;;;27.60;100856.00;;;;4912244;29;20100;-73
2021/10/25 13:44:23;;;;;;;0.90;0.80;;;;;28.10;100849.00;;;;4910970;29;20054;-73
2021/10/25 13:46:53;;;;;;;5.93;1.47;;;;;27.80;100859.00;;;;4912136;29;20056;-73
2021/10/25 13:49:24;;;;;;;1.25;0.90;;;;;28.00;100844.00;;;;4911851;29;20145;-73
2021/10/25 13:51:53;;;;;;;10.18;2.53;;;;;27.90;100847.00;;;;4912124;29;20052;-73
2021/10/25 13:54:23;;;;;;;1.95;0.85;;;;;27.20;100845.00;;;;4910892;29;20452;-71
2021/10/25 13:56:53;;;;;;;4.32;1.10;;;;;27.70;100855.00;;;;4912882;29;20135;-73
2021/10/25 13:59:23;;;;;;;8.97;3.93;;;;;27.80;100850.00;;;;4911935;29;20487;-73
2021/10/25 14:01:52;;;;;;;1.73;0.90;;;;;27.10;100844.00;;;;4910053;29;20059;-72
2021/10/25 14:04:22;;;;;;;1.48;0.85;;;;;27.40;100848.00;;;;4912045;29;20131;-73
2021/10/25 14:06:52;;;;;;;2.15;0.77;;;;;27.50;100824.00;;;;4911160;29;20048;-72
2021/10/25 14:09:23;;;;;;;17.25;9.52;;;;;27.80;100823.00;;;;4912313;29;20087;-72
2021/10/25 14:11:55;;;;;;;;;;;;;28.50;100824.00;;;;4912476;29;20048;-72
2021/10/25 14:14:27;;;;;;;2.47;0.90;;;;;27.80;100820.00;;;;4911640;29;19974;-72
2021/10/25 14:16:57;;;;;;;1.30;0.80;;;;;27.50;100829.00;;;;4911629;29;20067;-73
2021/10/25 14:19:28;;;;;;;3.72;0.80;;;;;28.00;100814.00;;;;4912345;29;20055;-73
2021/10/25 14:22:00;;;;;;;4.07;1.38;;;;;28.10;100799.00;;;;4912655;29;20052;-73
2021/10/25 14:24:29;;;;;;;3.33;1.20;;;;;27.80;100803.00;;;;4911628;29;20044;-72
2021/10/25 14:26:59;;;;;;;3.60;1.20;;;;;27.80;100802.00;;;;4911468;29;20139;-72
2021/10/25 14:29:29;;;;;;;4.97;1.10;;;;;28.70;100793.00;;;;4911313;29;20048;-72
2021/10/25 14:31:59;;;;;;;4.53;1.05;;;;;28.00;100795.00;;;;4910552;29;20055;-73